createdAt,value
2022-12-02T00:02:06.112Z,102162.91
2022-12-02T00:04:33.723Z,102159.66
2022-12-02T00:07:01.140Z,102166.13
2022-12-02T00:09:31.954Z,102163.25
2022-12-02T00:12:00.860Z,102166.50
2022-12-02T00:14:30.225Z,102037.47
2022-12-02T00:16:57.671Z,102139.16
2022-12-02T00:19:24.853Z,102168.16
2022-12-02T00:21:52.389Z,102109.69
2022-12-02T00:24:20.182Z,102163.06
2022-12-02T00:26:47.799Z,102173.00
2022-12-02T00:29:15.007Z,102119.28
2022-12-02T00:34:28.723Z,102156.84
2022-12-02T00:36:55.901Z,102161.72
2022-12-02T00:39:23.133Z,102156.16
2022-12-02T00:41:50.318Z,102137.50
2022-12-02T00:44:36.049Z,102031.13
2022-12-02T00:47:03.145Z,102149.25
2022-12-02T00:49:30.414Z,102100.44
2022-12-02T00:51:57.490Z,102149.69
2022-12-02T00:54:24.920Z,102122.75
2022-12-02T00:56:52.246Z,102119.09
2022-12-02T00:59:19.537Z,101972.13
2022-12-02T01:01:47.337Z,102028.56
2022-12-02T01:04:14.574Z,102147.59
2022-12-02T01:06:41.681Z,102146.78
2022-12-02T01:09:09.332Z,102140.78
2022-12-02T01:11:36.697Z,102145.59
2022-12-02T01:14:03.925Z,102024.81
2022-12-02T01:16:31.151Z,102035.13
2022-12-02T01:18:58.535Z,102146.44
2022-12-02T01:21:25.697Z,102074.63
2022-12-02T01:23:53.251Z,102138.75
2022-12-02T01:26:20.429Z,102124.16
2022-12-02T01:28:47.601Z,102111.66
2022-12-02T01:31:15.317Z,102148.91
2022-12-02T01:33:42.797Z,102153.28
2022-12-02T01:36:10.395Z,102115.03
2022-12-02T01:38:37.577Z,102112.25
2022-12-02T01:41:06.612Z,102092.47
2022-12-02T01:43:34.012Z,102069.97
2022-12-02T01:46:01.661Z,102148.13
2022-12-02T01:48:30.096Z,102155.03
2022-12-02T01:50:58.080Z,102149.00
2022-12-02T01:53:25.497Z,102159.44
2022-12-02T01:55:53.858Z,102105.91
2022-12-02T01:58:25.552Z,102141.44
2022-12-02T02:00:55.256Z,102141.81
2022-12-02T02:03:22.596Z,102121.69
2022-12-02T02:05:50.868Z,102155.88
2022-12-02T02:08:18.725Z,102137.75
2022-12-02T02:10:47.008Z,102091.84
2022-12-02T02:13:16.695Z,102156.75
2022-12-02T02:15:45.478Z,102156.34
2022-12-02T02:18:13.418Z,102159.22
2022-12-02T02:20:41.604Z,102146.75
2022-12-02T02:23:09.159Z,102150.38
2022-12-02T02:25:45.747Z,102150.38
2022-12-02T02:28:14.702Z,102154.00
2022-12-02T02:30:42.338Z,102132.97
2022-12-02T02:33:13.490Z,102128.16
2022-12-02T02:35:42.624Z,102115.56
2022-12-02T02:38:13.701Z,101986.28
2022-12-02T02:40:42.401Z,102152.34
2022-12-02T02:43:11.410Z,102087.06
2022-12-02T02:45:43.028Z,102156.84
2022-12-02T02:48:13.444Z,102141.03
2022-12-02T02:50:43.335Z,102126.56
2022-12-02T02:53:12.161Z,102162.84
2022-12-02T02:55:39.442Z,102166.91
2022-12-02T02:58:15.631Z,102166.50
2022-12-02T03:00:53.384Z,102168.56
2022-12-02T03:03:23.337Z,102161.72
2022-12-02T03:05:53.396Z,102165.31
2022-12-02T03:08:23.887Z,102118.97
2022-12-02T03:10:54.344Z,102159.25
2022-12-02T03:13:21.944Z,102086.25
2022-12-02T03:15:49.946Z,102141.50
2022-12-02T03:18:17.522Z,102151.53
2022-12-02T03:20:44.660Z,102157.59
2022-12-02T03:23:11.958Z,102150.78
2022-12-02T03:25:39.256Z,102153.63
2022-12-02T03:28:06.697Z,102158.91
2022-12-02T03:30:52.693Z,102156.09
2022-12-02T03:33:20.217Z,102133.91
2022-12-02T03:35:48.870Z,102052.50
2022-12-02T03:38:16.656Z,102156.50
2022-12-02T03:40:53.410Z,102152.44
2022-12-02T03:43:20.685Z,102109.72
2022-12-02T03:45:47.834Z,102132.38
2022-12-02T03:48:17.417Z,102151.66
2022-12-02T03:50:44.560Z,102149.63
2022-12-02T03:53:11.693Z,102115.81
2022-12-02T03:55:38.918Z,102021.00
2022-12-02T03:58:07.794Z,102144.72
2022-12-02T04:00:36.276Z,102135.91
2022-12-02T04:03:04.451Z,102138.72
2022-12-02T04:05:32.423Z,102145.16
2022-12-02T04:07:59.865Z,102141.09
2022-12-02T04:10:27.062Z,102108.94
2022-12-02T04:12:54.264Z,102116.13
2022-12-02T04:15:21.496Z,102063.34
2022-12-02T04:17:48.682Z,102153.94
2022-12-02T04:20:15.784Z,102142.38
2022-12-02T04:22:42.838Z,102147.59
2022-12-02T04:25:10.114Z,102145.16
2022-12-02T04:27:37.302Z,102158.00
2022-12-02T04:30:05.107Z,102131.03
2022-12-02T04:32:32.439Z,102124.59
2022-12-02T04:34:59.613Z,102099.97
2022-12-02T04:37:26.877Z,102146.34
2022-12-02T04:39:54.050Z,102147.56
2022-12-02T04:42:21.347Z,102059.28
2022-12-02T04:44:48.803Z,102132.25
2022-12-02T04:47:16.174Z,102083.38
2022-12-02T04:49:43.259Z,102168.41
2022-12-02T04:52:10.443Z,102089.44
2022-12-02T04:54:37.635Z,102167.56
2022-12-02T04:57:04.836Z,102161.94
2022-12-02T04:59:32.035Z,102125.63
2022-12-02T05:01:59.168Z,102166.72
2022-12-02T05:04:26.624Z,102167.13
2022-12-02T05:06:54.109Z,102155.78
2022-12-02T05:09:21.944Z,102163.84
2022-12-02T05:11:49.325Z,102024.41
2022-12-02T05:14:16.362Z,102178.75
2022-12-02T05:16:44.281Z,102172.25
2022-12-02T05:19:11.582Z,102174.28
2022-12-02T05:21:39.062Z,102137.59
2022-12-02T05:24:07.843Z,102178.72
2022-12-02T05:26:35.177Z,102196.00
2022-12-02T05:29:02.410Z,102170.34
2022-12-02T05:31:29.634Z,102105.03
2022-12-02T05:33:56.854Z,102136.47
2022-12-02T05:36:23.968Z,102173.50
2022-12-02T05:38:51.412Z,102170.25
2022-12-02T05:41:18.536Z,102121.44
2022-12-02T05:43:46.976Z,102125.94
2022-12-02T05:46:20.010Z,102065.91
2022-12-02T05:48:49.578Z,102147.31
2022-12-02T05:51:19.761Z,102160.09
2022-12-02T05:53:48.760Z,102133.97
2022-12-02T05:56:25.944Z,102171.47
2022-12-02T05:58:54.646Z,102169.88
2022-12-02T06:01:38.902Z,102184.72
2022-12-02T06:04:19.335Z,102193.94
2022-12-02T06:06:47.130Z,102177.09
2022-12-02T06:09:20.495Z,102188.78
2022-12-02T06:11:48.434Z,102193.25
2022-12-02T06:14:18.485Z,102188.44
2022-12-02T06:16:49.773Z,102190.84
2022-12-02T06:19:24.023Z,102189.16
2022-12-02T06:21:52.691Z,102187.19
2022-12-02T06:24:33.348Z,102178.56
2022-12-02T06:27:03.212Z,102182.28
2022-12-02T06:29:32.396Z,102191.59
2022-12-02T06:32:00.248Z,102191.59
2022-12-02T06:34:54.197Z,102185.97
2022-12-02T06:37:26.490Z,102192.44
2022-12-02T06:40:27.060Z,102198.88
2022-12-02T06:42:43.367Z,102154.63
2022-12-02T06:45:29.233Z,102178.81
2022-12-02T06:48:07.418Z,102205.34
2022-12-02T06:50:43.037Z,102199.69
2022-12-02T06:53:25.974Z,102212.13
2022-12-02T06:55:58.626Z,102165.38
2022-12-02T06:58:36.276Z,102207.72
2022-12-02T07:01:33.337Z,102210.97
2022-12-02T07:04:39.810Z,102142.75
2022-12-02T07:07:22.553Z,102219.69
2022-12-02T07:09:58.854Z,102222.47
2022-12-02T07:12:37.244Z,102206.38
2022-12-02T07:15:10.404Z,102213.69
2022-12-02T07:17:43.757Z,102222.16
2022-12-02T07:20:23.143Z,102212.59
2022-12-02T07:23:00.281Z,102217.38
2022-12-02T07:25:34.865Z,102230.22
2022-12-02T07:28:15.637Z,102214.06
2022-12-02T07:30:43.443Z,102135.84
2022-12-02T07:33:10.785Z,102228.25
2022-12-02T07:35:37.835Z,102209.66
2022-12-02T07:38:04.880Z,102039.53
2022-12-02T07:40:32.028Z,102236.75
2022-12-02T07:42:59.094Z,102232.72
2022-12-02T07:45:26.220Z,102229.50
2022-12-02T07:47:53.461Z,102212.94
2022-12-02T07:50:20.659Z,102232.81
2022-12-02T07:52:47.816Z,102236.44
2022-12-02T07:55:15.004Z,102245.28
2022-12-02T07:57:42.195Z,102236.03
2022-12-02T08:00:10.770Z,102245.69
2022-12-02T08:02:41.086Z,102245.72
2022-12-02T08:05:08.909Z,102239.25
2022-12-02T08:07:36.162Z,102217.09
2022-12-02T08:10:03.898Z,102224.72
2022-12-02T08:12:31.119Z,102261.00
2022-12-02T08:14:58.541Z,102250.59
2022-12-02T08:17:25.791Z,102210.53
2022-12-02T08:19:53.013Z,102259.78
2022-12-02T08:22:20.136Z,102262.91
2022-12-02T08:24:47.361Z,102265.81
2022-12-02T08:27:14.585Z,102261.38
2022-12-02T08:29:41.832Z,102244.88
2022-12-02T08:32:09.032Z,102123.03
2022-12-02T08:34:36.229Z,102254.56
2022-12-02T08:37:03.629Z,102264.19
2022-12-02T08:39:30.852Z,102206.13
2022-12-02T08:41:57.914Z,102191.59
2022-12-02T08:44:25.013Z,102256.13
2022-12-02T08:46:54.438Z,102251.25
2022-12-02T08:49:22.574Z,102233.53
2022-12-02T08:51:50.015Z,102227.53
2022-12-02T08:54:17.261Z,102249.75
2022-12-02T08:56:44.837Z,102252.28
2022-12-02T08:59:12.129Z,102198.69
2022-12-02T09:01:39.412Z,102168.47
2022-12-02T09:04:06.896Z,102256.34
2022-12-02T09:06:36.243Z,102241.09
2022-12-02T09:09:05.741Z,102238.69
2022-12-02T09:11:33.698Z,102239.06
2022-12-02T09:14:01.002Z,102224.16
2022-12-02T09:16:28.229Z,102257.25
2022-12-02T09:18:58.583Z,102166.97
2022-12-02T09:21:25.773Z,102206.03
2022-12-02T09:23:52.936Z,102240.28
2022-12-02T09:26:20.554Z,102221.75
2022-12-02T09:28:47.745Z,102239.44
2022-12-02T09:31:15.167Z,102203.22
2022-12-02T09:33:42.428Z,102243.53
2022-12-02T09:36:09.520Z,102237.88
2022-12-02T09:38:36.779Z,102168.16
2022-12-02T09:41:04.734Z,102229.88
2022-12-02T09:43:32.211Z,102235.41
2022-12-02T09:45:59.617Z,102219.28
2022-12-02T09:48:28.472Z,102224.47
2022-12-02T09:50:58.755Z,102198.25
2022-12-02T09:53:31.299Z,102232.97
2022-12-02T09:56:01.341Z,102233.75
2022-12-02T09:58:28.703Z,102233.34
2022-12-02T10:00:56.181Z,102228.94
2022-12-02T10:03:28.966Z,102228.19
2022-12-02T10:05:56.854Z,102221.00
2022-12-02T10:08:30.130Z,102217.44
2022-12-02T10:11:00.057Z,102221.00
2022-12-02T10:13:27.865Z,102227.44
2022-12-02T10:15:55.251Z,102217.44
2022-12-02T10:18:32.664Z,102230.28
2022-12-02T10:21:00.079Z,102185.53
2022-12-02T10:23:29.175Z,102224.28
2022-12-02T10:26:16.456Z,102215.06
2022-12-02T10:28:58.134Z,102205.78
2022-12-02T10:31:25.365Z,102201.78
2022-12-02T10:33:56.557Z,102231.59
2022-12-02T10:36:41.686Z,102218.31
2022-12-02T10:39:18.471Z,102215.53
2022-12-02T10:41:45.993Z,102225.25
2022-12-02T10:44:16.591Z,102193.81
2022-12-02T10:46:44.604Z,102219.59
2022-12-02T10:49:30.595Z,102209.16
2022-12-02T10:52:01.823Z,102215.56
2022-12-02T10:54:35.410Z,102212.75
2022-12-02T10:57:07.470Z,102210.38
2022-12-02T10:59:34.731Z,102186.16
2022-12-02T11:02:02.507Z,102174.06
2022-12-02T11:04:30.226Z,102168.03
2022-12-02T11:06:57.952Z,102218.75
2022-12-02T11:09:42.286Z,102124.00
2022-12-02T11:12:37.243Z,102216.34
2022-12-02T11:15:35.563Z,102220.78
2022-12-02T11:18:04.284Z,102219.09
2022-12-02T11:20:43.417Z,102092.88
2022-12-02T11:23:30.746Z,102220.31
2022-12-02T11:26:07.146Z,102220.25
2022-12-02T11:28:39.225Z,102212.19
2022-12-02T11:31:12.501Z,102216.69
2022-12-02T11:33:39.575Z,102219.56
2022-12-02T11:36:06.775Z,102223.19
2022-12-02T11:38:47.019Z,102193.34
2022-12-02T11:41:16.369Z,102221.97
2022-12-02T11:43:46.925Z,102218.78
2022-12-02T11:46:41.502Z,102201.03
2022-12-02T11:49:40.377Z,102224.44
2022-12-02T11:52:11.957Z,102224.47
2022-12-02T11:54:45.713Z,102210.75
2022-12-02T11:57:27.422Z,102215.56
2022-12-02T11:59:54.972Z,102201.78
2022-12-02T12:02:24.177Z,102162.28
2022-12-02T12:05:05.973Z,102101.84
2022-12-02T12:07:50.471Z,102195.25
2022-12-02T12:10:29.881Z,102221.47
2022-12-02T12:13:17.565Z,102216.63
2022-12-02T12:15:57.279Z,102200.09
2022-12-02T12:18:44.178Z,102206.53
2022-12-02T12:21:12.495Z,102218.53
2022-12-02T12:23:42.917Z,102208.09
2022-12-02T12:26:30.728Z,102211.38
2022-12-02T12:29:03.057Z,102170.31
2022-12-02T12:31:34.908Z,102102.66
2022-12-02T12:34:05.455Z,102221.13
2022-12-02T12:36:32.609Z,102177.59
2022-12-02T12:39:00.242Z,102212.28
2022-12-02T12:41:51.807Z,102214.69
2022-12-02T12:44:14.793Z,102189.22
2022-12-02T12:46:42.432Z,102221.81
2022-12-02T12:49:10.061Z,102215.31
2022-12-02T12:51:37.563Z,102219.66
2022-12-02T12:54:04.871Z,102218.03
2022-12-02T12:56:31.945Z,102187.34
2022-12-02T12:58:58.990Z,102172.84
2022-12-02T13:01:26.180Z,102220.44
2022-12-02T13:03:53.376Z,102226.84
2022-12-02T13:06:20.981Z,102217.94
2022-12-02T13:08:48.085Z,102161.13
2022-12-02T13:11:15.221Z,102203.53
2022-12-02T13:13:42.336Z,102189.78
2022-12-02T13:16:09.492Z,102240.94
2022-12-02T13:18:36.655Z,102236.53
2022-12-02T13:21:03.947Z,102237.00
2022-12-02T13:23:31.109Z,102180.56
2022-12-02T13:25:58.224Z,102228.94
2022-12-02T13:28:25.295Z,102219.28
2022-12-02T13:30:54.045Z,102182.59
2022-12-02T13:33:21.591Z,102247.50
2022-12-02T13:35:48.787Z,102243.91
2022-12-02T13:38:16.852Z,102244.34
2022-12-02T13:40:47.727Z,102216.97
2022-12-02T13:43:18.999Z,102236.38
2022-12-02T13:45:46.296Z,102247.56
2022-12-02T13:48:13.773Z,102248.28
2022-12-02T13:50:41.030Z,102210.34
2022-12-02T13:53:08.256Z,102245.00
2022-12-02T13:55:35.478Z,102226.03
2022-12-02T13:58:02.705Z,102245.75
2022-12-02T14:00:29.760Z,102232.94
2022-12-02T14:02:56.981Z,102240.22
2022-12-02T14:05:23.987Z,102220.00
2022-12-02T14:07:51.216Z,102261.84
2022-12-02T14:10:22.066Z,102252.59
2022-12-02T14:12:49.192Z,102194.19
2022-12-02T14:15:16.431Z,102251.47
2022-12-02T14:17:43.433Z,102249.03
2022-12-02T14:20:11.307Z,102248.56
2022-12-02T14:22:38.427Z,102244.56
2022-12-02T14:25:05.934Z,102254.69
2022-12-02T14:27:33.248Z,102154.22
2022-12-02T14:30:00.313Z,102235.28
2022-12-02T14:32:27.375Z,102186.88
2022-12-02T14:34:54.833Z,102257.47
2022-12-02T14:37:22.274Z,102183.59
2022-12-02T14:39:49.473Z,102216.25
2022-12-02T14:42:16.682Z,102276.69
2022-12-02T14:44:43.861Z,102211.47
2022-12-02T14:47:11.005Z,102253.44
2022-12-02T14:49:40.099Z,102274.88
2022-12-02T14:52:08.581Z,102272.44
2022-12-02T14:54:35.827Z,102247.91
2022-12-02T14:57:03.523Z,102182.19
2022-12-02T14:59:31.280Z,102249.13
2022-12-02T15:01:58.973Z,102283.00
2022-12-02T15:04:28.937Z,102236.56
2022-12-02T15:06:56.305Z,102284.94
2022-12-02T15:09:23.769Z,102288.50
2022-12-02T15:11:52.319Z,102262.66
2022-12-02T15:14:20.255Z,102288.84
2022-12-02T15:16:47.457Z,102246.53
2022-12-02T15:19:14.678Z,102293.75
2022-12-02T15:21:42.402Z,102266.75
2022-12-02T15:24:09.737Z,102298.28
2022-12-02T15:26:36.923Z,102274.88
2022-12-02T15:29:04.462Z,102295.50
2022-12-02T15:31:32.277Z,102291.84
2022-12-02T15:33:59.944Z,102283.47
2022-12-02T15:36:27.057Z,102294.75
2022-12-02T15:39:00.898Z,102295.56
2022-12-02T15:41:30.125Z,102293.56
2022-12-02T15:43:57.992Z,102209.69
2022-12-02T15:46:25.246Z,102305.66
2022-12-02T15:48:52.792Z,102291.06
2022-12-02T15:51:20.416Z,102279.06
2022-12-02T15:53:47.675Z,102208.09
2022-12-02T15:56:15.398Z,102300.84
2022-12-02T15:58:43.132Z,102289.53
2022-12-02T16:01:10.435Z,102287.13
2022-12-02T16:03:38.268Z,102279.06
2022-12-02T16:06:05.717Z,102225.78
2022-12-02T16:08:33.655Z,102262.94
2022-12-02T16:11:00.817Z,102313.75
2022-12-02T16:13:28.579Z,102183.88
2022-12-02T16:15:55.765Z,102258.91
2022-12-02T16:18:23.404Z,102319.38
2022-12-02T16:20:55.357Z,102316.16
2022-12-02T16:23:24.110Z,102324.25
2022-12-02T16:25:51.352Z,102316.16
2022-12-02T16:28:18.691Z,102327.88
2022-12-02T16:30:45.828Z,102304.88
2022-12-02T16:33:13.252Z,102255.84
2022-12-02T16:35:40.507Z,102334.59
2022-12-02T16:38:07.783Z,102306.34
2022-12-02T16:40:35.220Z,102252.34
2022-12-02T16:43:02.377Z,102330.56
2022-12-02T16:45:30.326Z,102286.63
2022-12-02T16:47:57.486Z,102329.81
2022-12-02T16:50:25.065Z,102331.47
2022-12-02T16:52:52.357Z,102315.72
2022-12-02T16:55:19.447Z,102334.69
2022-12-02T16:57:47.071Z,102339.94
2022-12-02T17:00:14.587Z,102338.69
2022-12-02T17:02:43.179Z,102341.50
2022-12-02T17:05:11.515Z,102331.38
2022-12-02T17:07:38.780Z,102331.00
2022-12-02T17:10:06.544Z,102193.44
2022-12-02T17:12:33.831Z,102353.59
2022-12-02T17:15:01.546Z,102360.44
2022-12-02T17:17:46.303Z,102356.81
2022-12-02T17:20:14.860Z,102334.56
2022-12-02T17:22:43.983Z,102359.63
2022-12-02T17:25:13.461Z,102372.53
2022-12-02T17:27:41.413Z,102273.22
2022-12-02T17:30:10.509Z,102370.00
2022-12-02T17:32:37.724Z,102373.19
2022-12-02T17:35:05.988Z,102378.69
2022-12-02T17:37:33.176Z,102352.81
2022-12-02T17:40:00.534Z,102379.91
2022-12-02T17:42:27.717Z,102343.16
2022-12-02T17:44:55.307Z,102375.19
2022-12-02T17:47:22.550Z,102369.13
2022-12-02T17:49:49.943Z,102371.22
2022-12-02T17:52:19.857Z,102381.16
2022-12-02T17:54:48.154Z,102392.44
2022-12-02T17:57:15.336Z,102352.09
2022-12-02T17:59:42.490Z,102358.97
2022-12-02T18:02:13.977Z,102361.06
2022-12-02T18:04:44.899Z,102364.34
2022-12-02T18:07:13.304Z,102387.38
2022-12-02T18:09:41.976Z,102380.97
2022-12-02T18:12:10.693Z,102382.56
2022-12-02T18:14:38.032Z,102386.22
2022-12-02T18:17:07.135Z,102298.19
2022-12-02T18:19:34.888Z,102392.59
2022-12-02T18:22:02.256Z,102381.75
2022-12-02T18:24:29.722Z,102390.63
2022-12-02T18:26:56.824Z,102371.66
2022-12-02T18:29:23.981Z,102377.31
2022-12-02T18:31:51.227Z,102385.03
2022-12-02T18:34:18.480Z,102349.84
2022-12-02T18:36:45.964Z,102392.19
2022-12-02T18:39:13.332Z,102323.63
2022-12-02T18:41:40.883Z,102370.88
2022-12-02T18:44:08.080Z,102366.91
2022-12-02T18:46:35.429Z,102366.84
2022-12-02T18:49:03.012Z,102360.78
2022-12-02T18:51:30.282Z,102302.91
2022-12-02T18:53:58.362Z,102370.78
2022-12-02T18:56:25.514Z,102400.22
2022-12-02T18:58:56.588Z,102386.81
2022-12-02T19:01:26.908Z,102383.22
2022-12-02T19:03:57.233Z,102400.09
2022-12-02T19:06:24.536Z,102390.09
2022-12-02T19:08:52.577Z,102327.97
2022-12-02T19:11:19.774Z,102386.53
2022-12-02T19:13:47.027Z,102313.88
2022-12-02T19:16:14.323Z,102381.72
2022-12-02T19:18:41.542Z,102383.75
2022-12-02T19:21:08.714Z,102406.25
2022-12-02T19:23:36.210Z,102391.81
2022-12-02T19:26:03.570Z,102390.19
2022-12-02T19:28:31.229Z,102391.03
2022-12-02T19:30:58.938Z,102351.41
2022-12-02T19:33:26.208Z,102405.41
2022-12-02T19:35:53.316Z,102344.69
2022-12-02T19:38:20.769Z,102435.22
2022-12-02T19:40:48.048Z,102311.66
2022-12-02T19:43:15.947Z,102420.72
2022-12-02T19:45:43.515Z,102374.56
2022-12-02T19:48:11.265Z,102416.91
2022-12-02T19:50:38.509Z,102307.31
2022-12-02T19:53:05.842Z,102420.03
2022-12-02T19:55:32.967Z,102419.69
2022-12-02T19:58:00.144Z,102408.78
2022-12-02T20:00:27.583Z,102395.19
2022-12-02T20:02:54.711Z,102396.06
2022-12-02T20:05:22.208Z,102267.78
2022-12-02T20:07:49.936Z,102395.78
2022-12-02T20:10:17.982Z,102417.94
2022-12-02T20:12:45.583Z,102388.41
2022-12-02T20:15:13.911Z,102394.56
2022-12-02T20:17:41.304Z,102423.19
2022-12-02T20:20:11.585Z,102350.53
2022-12-02T20:22:39.037Z,102394.50
2022-12-02T20:25:08.224Z,102431.56
2022-12-02T20:27:35.556Z,102426.34
2022-12-02T20:30:03.146Z,102423.97
2022-12-02T20:32:30.720Z,102269.63
2022-12-02T20:34:57.847Z,102415.44
2022-12-02T20:37:25.189Z,102430.44
2022-12-02T20:39:52.462Z,102366.63
2022-12-02T20:42:19.635Z,102388.41
2022-12-02T20:44:52.198Z,102407.81
2022-12-02T20:47:20.402Z,102466.72
2022-12-02T20:49:47.715Z,102375.19
2022-12-02T20:52:15.765Z,102431.28
2022-12-02T20:54:43.290Z,102420.81
2022-12-02T20:57:13.909Z,102423.97
2022-12-02T20:59:41.386Z,102427.13
2022-12-02T21:02:11.573Z,102432.00
2022-12-02T21:04:39.236Z,102304.78
2022-12-02T21:07:09.781Z,102430.81
2022-12-02T21:09:39.675Z,102437.66
2022-12-02T21:12:08.498Z,102411.84
2022-12-02T21:14:35.771Z,102442.50
2022-12-02T21:17:04.169Z,102449.72
2022-12-02T21:19:31.782Z,102419.00
2022-12-02T21:21:58.902Z,102442.03
2022-12-02T21:24:26.186Z,102381.88
2022-12-02T21:26:53.212Z,102425.78
2022-12-02T21:29:20.839Z,102352.31
2022-12-02T21:31:48.027Z,102371.31
2022-12-02T21:34:15.282Z,102402.09
2022-12-02T21:36:42.455Z,102447.31
2022-12-02T21:39:09.926Z,102420.63
2022-12-02T21:41:37.037Z,102326.09
2022-12-02T21:44:04.430Z,102395.53
2022-12-02T21:46:31.820Z,102455.97
2022-12-02T21:48:59.618Z,102445.44
2022-12-02T21:51:26.713Z,102427.50
2022-12-02T21:53:54.149Z,102375.66
2022-12-02T21:56:21.294Z,102400.00
2022-12-02T21:58:48.711Z,102419.50
2022-12-02T22:01:34.311Z,102409.03
2022-12-02T22:04:01.360Z,102337.94
2022-12-02T22:06:28.639Z,102390.47
2022-12-02T22:08:56.547Z,102460.03
2022-12-02T22:11:24.517Z,102440.28
2022-12-02T22:13:51.731Z,102443.91
2022-12-02T22:16:19.072Z,102449.97
2022-12-02T22:18:46.222Z,102458.38
2022-12-02T22:21:13.320Z,102395.44
2022-12-02T22:23:40.430Z,102390.63
2022-12-02T22:26:07.974Z,102457.34
2022-12-02T22:28:35.161Z,102433.09
2022-12-02T22:31:02.335Z,102437.59
2022-12-02T22:33:33.130Z,102442.50
2022-12-02T22:36:01.054Z,102436.03
2022-12-02T22:38:31.077Z,102446.09
2022-12-02T22:40:58.216Z,102306.34
2022-12-02T22:43:25.335Z,102350.00
2022-12-02T22:45:52.511Z,102438.44
2022-12-02T22:48:19.733Z,102444.09
2022-12-02T22:50:46.882Z,102427.88
2022-12-02T22:53:14.025Z,102426.19
2022-12-02T22:55:41.084Z,102442.72
2022-12-02T22:58:08.271Z,102417.66
2022-12-02T23:00:35.455Z,102450.38
2022-12-02T23:03:02.845Z,102377.31
2022-12-02T23:05:30.104Z,102414.41
2022-12-02T23:07:57.437Z,102426.16
2022-12-02T23:10:24.943Z,102450.34
2022-12-02T23:12:52.098Z,102444.31
2022-12-02T23:15:37.075Z,102450.78
2022-12-02T23:18:06.869Z,102382.19
2022-12-02T23:20:35.496Z,102438.78
2022-12-02T23:23:02.696Z,102443.50
2022-12-02T23:25:30.034Z,102440.25
2022-12-02T23:27:57.390Z,102448.41
2022-12-02T23:30:28.871Z,102408.47
2022-12-02T23:32:57.948Z,102412.13
2022-12-02T23:35:26.376Z,102425.09
2022-12-02T23:37:53.599Z,102441.19
2022-12-02T23:40:20.988Z,102448.88
2022-12-02T23:42:48.145Z,102455.34
2022-12-02T23:45:15.393Z,102359.88
2022-12-02T23:47:42.643Z,102447.22
2022-12-02T23:50:10.403Z,102444.41
2022-12-02T23:52:37.719Z,102451.13
2022-12-02T23:55:05.190Z,102451.09
2022-12-02T23:57:32.393Z,102410.28
2022-12-02T23:59:59.599Z,102458.28
